Sumiyoshimaru No11 — JJ3809 — position and weather

sailwx.info

Track history (hours):
 
Tides and Currents Weather Stations Pressure Air Temp Water Temp Dewpoint Dewpoint Depression Visibility Wind Speed Wind Dir Waves Ship Positions

Sumiyoshimaru No11

Last reported at 2018-Jun-20 12:56 UTC. Time now 2018-Jun-21 02:45 UTC.
Position N 34°25' E 134°22'.

Length 69 m.

MMSI: 431300097.

Date/timePositionNaut miles runAvg speedWind from/ knotsBaromVisibWave heightAir tempDewpointWater temp
2018-Jun-20 12:56N 34°25' E 134°22'510.3
2018-Jun-20 12:28N 34°27' E 134°27'510.4
2018-Jun-20 12:00N 34°29' E 134°32'510.1
2018-Jun-20 11:30N 34°31' E 134°38'5 9.9
2018-Jun-20 11:00N 34°33' E 134°44'5 9.5
2018-Jun-20 10:30N 34°34' E 134°49'11 8.4
2018-Jun-20 09:13N 34°37' E 135°02'2 7.9
2018-Jun-20 09:00N 34°36' E 135°03'5 9.0
2018-Jun-20 08:30N 34°36' E 135°09'510.0
2018-Jun-20 08:00N 34°37' E 135°15'5 9.9
2018-Jun-20 07:30N 34°38' E 135°21'5 9.4
2018-Jun-20 07:00N 34°40' E 135°26'1 1.9
2018-Jun-20 06:30N 34°40' E 135°27'0 0.0
2018-Jun-20 06:00N 34°40' E 135°27'0 0.0
2018-Jun-20 05:30N 34°40' E 135°27'0 0.0
2018-Jun-20 04:58N 34°40' E 135°27'0 0.0
2018-Jun-20 04:29N 34°40' E 135°27'0 0.0
2018-Jun-20 04:00N 34°40' E 135°27'0 0.0
2018-Jun-20 03:30N 34°40' E 135°27'0 0.0
2018-Jun-20 03:00N 34°40' E 135°27'2 4.1
2018-Jun-20 02:30N 34°40' E 135°25'1 1.7
2018-Jun-20 02:00N 34°40' E 135°25'0 0.0
2018-Jun-20 01:29N 34°40' E 135°25'0 0.0
2018-Jun-20 01:00N 34°40' E 135°25'0 0.0
2018-Jun-20 00:30N 34°40' E 135°25'0 0.0
2018-Jun-20 00:00N 34°40' E 135°25'0 0.0
2018-Jun-19 23:30N 34°40' E 135°25'3 5.2
2018-Jun-19 23:00N 34°38' E 135°23'5 9.7
2018-Jun-19 22:29N 34°36' E 135°18'510.2
2018-Jun-19 22:00N 34°35' E 135°12'511.0
2018-Jun-19 21:30N 34°35' E 135°05'610.9
2018-Jun-19 20:55N 34°36' E 134°58'610.8
2018-Jun-19 20:24N 34°34' E 134°52'410.0
2018-Jun-19 20:00N 34°32' E 134°47'5 9.7
2018-Jun-19 19:30N 34°31' E 134°42'510.1
2018-Jun-19 19:00N 34°29' E 134°36'510.2
2018-Jun-19 18:30N 34°27' E 134°30'5 9.9
2018-Jun-19 18:00N 34°25' E 134°25'  
2018-Jun-16 22:27N 34°41' E 134°29'3 0.1
2018-Jun-16 03:53N 34°41' E 134°33'4 9.3
2018-Jun-16 03:30N 34°41' E 134°37'5 9.5
2018-Jun-16 03:00N 34°40' E 134°43'510.1
2018-Jun-16 02:30N 34°38' E 134°49'510.4
2018-Jun-16 02:00N 34°37' E 134°55'611.2
2018-Jun-16 01:28N 34°37' E 135°02'5 9.7
2018-Jun-16 00:59N 34°37' E 135°08'510.2
2018-Jun-16 00:30N 34°37' E 135°14'5 9.9
2018-Jun-16 00:00N 34°38' E 135°20'5 9.2
2018-Jun-15 23:30N 34°39' E 135°25'2 4.2
2018-Jun-15 23:00N 34°40' E 135°27'0 0.1
2018-Jun-15 22:30N 34°40' E 135°27'0 0.0
2018-Jun-15 22:00N 34°40' E 135°27'0 0.0
2018-Jun-15 21:30N 34°40' E 135°27'0 0.0
2018-Jun-15 21:00N 34°40' E 135°27'0 0.0
2018-Jun-15 20:30N 34°40' E 135°27'0 0.0
2018-Jun-15 20:00N 34°40' E 135°27'3 7.1
2018-Jun-15 19:30N 34°38' E 135°24'510.1
2018-Jun-15 19:00N 34°36' E 135°18'510.3
2018-Jun-15 18:30N 34°35' E 135°12'611.6
2018-Jun-15 18:00N 34°35' E 135°05'712.4
2018-Jun-15 17:28N 34°36' E 134°57'511.0
2018-Jun-15 17:01N 34°34' E 134°52'5 9.6
2018-Jun-15 16:30N 34°32' E 134°46'5 9.2
2018-Jun-15 16:00N 34°30' E 134°41'5 9.5
2018-Jun-15 15:30N 34°29' E 134°36'5 9.3
2018-Jun-15 15:00N 34°27' E 134°31'5 9.5
2018-Jun-15 14:30N 34°25' E 134°25'4 0.1
2018-Jun-14 04:42N 34°26' E 134°21'3 8.9
2018-Jun-14 04:21N 34°26' E 134°24'3 9.4
2018-Jun-14 03:59N 34°27' E 134°28'5 9.5
2018-Jun-14 03:30N 34°29' E 134°33'5 9.5
2018-Jun-14 03:00N 34°31' E 134°39'510.0
2018-Jun-14 02:30N 34°33' E 134°44'510.1
2018-Jun-14 02:00N 34°34' E 134°50'610.1
2018-Jun-14 01:22N 34°37' E 134°57'4 9.6
2018-Jun-14 01:00N 34°37' E 135°02'5 9.6
2018-Jun-14 00:29N 34°37' E 135°08'510.3
2018-Jun-14 00:00N 34°37' E 135°14'510.1
2018-Jun-13 23:30N 34°38' E 135°20'5 9.9
2018-Jun-13 23:00N 34°39' E 135°26'2 3.5
2018-Jun-13 22:30N 34°40' E 135°27'0 0.0
2018-Jun-13 22:00N 34°40' E 135°27'0 0.1
2018-Jun-13 21:30N 34°40' E 135°27'0 0.0
2018-Jun-13 20:57N 34°40' E 135°27'0 0.0
2018-Jun-13 20:28N 34°40' E 135°27'0 0.0
2018-Jun-13 19:59N 34°40' E 135°27'0 0.0
2018-Jun-13 19:30N 34°40' E 135°27'0 0.0
2018-Jun-13 19:00N 34°40' E 135°27'0 0.0
2018-Jun-13 18:30N 34°40' E 135°27'0 0.0
2018-Jun-13 18:00N 34°40' E 135°27'2 3.7
2018-Jun-13 17:27N 34°39' E 135°25'510.7
2018-Jun-13 17:00N 34°36' E 135°20'510.4
2018-Jun-13 16:30N 34°35' E 135°14'510.8
2018-Jun-13 16:00N 34°35' E 135°08'611.9
2018-Jun-13 15:31N 34°37' E 135°01'711.4
2018-Jun-13 14:53N 34°35' E 134°53'410.1
2018-Jun-13 14:30N 34°33' E 134°48'5 9.6
2018-Jun-13 14:00N 34°31' E 134°43'5 9.6
2018-Jun-13 13:30N 34°29' E 134°38'5 9.7
2018-Jun-13 13:00N 34°28' E 134°32'5 9.8
2018-Jun-13 12:30N 34°26' E 134°27'5 9.6
2018-Jun-13 12:00N 34°24' E 134°21'8 8.8
2018-Jun-13 11:08N 34°24' E 134°12'10 0.3
2018-Jun-12 05:47N 34°26' E 134°24'3 9.4
2018-Jun-12 05:29N 34°27' E 134°27'4 9.3
2018-Jun-12 05:01N 34°29' E 134°32'5 9.3
2018-Jun-12 04:31N 34°30' E 134°38'5 9.3
2018-Jun-12 03:59N 34°32' E 134°43'4 8.8
2018-Jun-12 03:29N 34°34' E 134°48'4 7.7
2018-Jun-12 03:01N 34°35' E 134°52'3 6.8
2018-Jun-12 02:30N 34°37' E 134°56'5 7.0
2018-Jun-12 01:50N 34°37' E 135°02'2 6.9
2018-Jun-12 01:30N 34°36' E 135°04'5 9.3
2018-Jun-12 01:00N 34°36' E 135°10'5 9.7
2018-Jun-12 00:30N 34°36' E 135°15'5 9.8
2018-Jun-12 00:00N 34°37' E 135°21'5 9.8
2018-Jun-11 23:30N 34°40' E 135°26'1 1.6
2018-Jun-11 23:00N 34°40' E 135°27'0 0.0
2018-Jun-11 22:29N 34°40' E 135°27'0 0.0
2018-Jun-11 22:00N 34°40' E 135°27'0 0.0
2018-Jun-11 21:22N 34°40' E 135°27'0 0.0
2018-Jun-11 21:00N 34°40' E 135°27'0 0.0
2018-Jun-11 20:30N 34°40' E 135°27'0 0.0
2018-Jun-11 20:00N 34°40' E 135°27'2 4.4
2018-Jun-11 19:30N 34°39' E 135°25'510.8
2018-Jun-11 19:00N 34°36' E 135°19'610.9
2018-Jun-11 18:29N 34°35' E 135°13'611.7
2018-Jun-11 18:00N 34°34' E 135°06'612.5
2018-Jun-11 17:30N 34°37' E 134°59'713.0
2018-Jun-11 17:00N 34°34' E 134°52'611.7
2018-Jun-11 16:30N 34°32' E 134°45'611.3
2018-Jun-11 16:00N 34°30' E 134°39'611.2
2018-Jun-11 15:30N 34°28' E 134°33'510.9
2018-Jun-11 15:01N 34°26' E 134°27'1211.3
2018-Jun-11 13:55N 34°24' E 134°12'  
Track history (hours):
 
Tides and Currents Weather Stations Pressure Air Temp Water Temp Dewpoint Dewpoint Depression Visibility Wind Speed Wind Dir Waves Ship Positions

Sumiyoshimaru No11

Last reported at 2018-Jun-20 12:56 UTC. Time now 2018-Jun-21 02:45 UTC.
Position N 34°25' E 134°22'.

Length 69 m.

MMSI: 431300097.

Date/timePositionNaut miles runAvg speedWind from/ knotsBaromVisibWave heightAir tempDewpointWater temp
2018-Jun-20 12:56N 34°25' E 134°22'510.3
2018-Jun-20 12:28N 34°27' E 134°27'510.4
2018-Jun-20 12:00N 34°29' E 134°32'510.1
2018-Jun-20 11:30N 34°31' E 134°38'5 9.9
2018-Jun-20 11:00N 34°33' E 134°44'5 9.5
2018-Jun-20 10:30N 34°34' E 134°49'11 8.4
2018-Jun-20 09:13N 34°37' E 135°02'2 7.9
2018-Jun-20 09:00N 34°36' E 135°03'5 9.0
2018-Jun-20 08:30N 34°36' E 135°09'510.0
2018-Jun-20 08:00N 34°37' E 135°15'5 9.9
2018-Jun-20 07:30N 34°38' E 135°21'5 9.4
2018-Jun-20 07:00N 34°40' E 135°26'1 1.9
2018-Jun-20 06:30N 34°40' E 135°27'0 0.0
2018-Jun-20 06:00N 34°40' E 135°27'0 0.0
2018-Jun-20 05:30N 34°40' E 135°27'0 0.0
2018-Jun-20 04:58N 34°40' E 135°27'0 0.0
2018-Jun-20 04:29N 34°40' E 135°27'0 0.0
2018-Jun-20 04:00N 34°40' E 135°27'0 0.0
2018-Jun-20 03:30N 34°40' E 135°27'0 0.0
2018-Jun-20 03:00N 34°40' E 135°27'2 4.1
2018-Jun-20 02:30N 34°40' E 135°25'1 1.7
2018-Jun-20 02:00N 34°40' E 135°25'0 0.0
2018-Jun-20 01:29N 34°40' E 135°25'0 0.0
2018-Jun-20 01:00N 34°40' E 135°25'0 0.0
2018-Jun-20 00:30N 34°40' E 135°25'0 0.0
2018-Jun-20 00:00N 34°40' E 135°25'0 0.0
2018-Jun-19 23:30N 34°40' E 135°25'3 5.2
2018-Jun-19 23:00N 34°38' E 135°23'5 9.7
2018-Jun-19 22:29N 34°36' E 135°18'510.2
2018-Jun-19 22:00N 34°35' E 135°12'511.0
2018-Jun-19 21:30N 34°35' E 135°05'610.9
2018-Jun-19 20:55N 34°36' E 134°58'610.8
2018-Jun-19 20:24N 34°34' E 134°52'410.0
2018-Jun-19 20:00N 34°32' E 134°47'5 9.7
2018-Jun-19 19:30N 34°31' E 134°42'510.1
2018-Jun-19 19:00N 34°29' E 134°36'510.2
2018-Jun-19 18:30N 34°27' E 134°30'5 9.9
2018-Jun-19 18:00N 34°25' E 134°25'  
2018-Jun-16 22:27N 34°41' E 134°29'3 0.1
2018-Jun-16 03:53N 34°41' E 134°33'4 9.3
2018-Jun-16 03:30N 34°41' E 134°37'5 9.5
2018-Jun-16 03:00N 34°40' E 134°43'510.1
2018-Jun-16 02:30N 34°38' E 134°49'510.4
2018-Jun-16 02:00N 34°37' E 134°55'611.2
2018-Jun-16 01:28N 34°37' E 135°02'5 9.7
2018-Jun-16 00:59N 34°37' E 135°08'510.2
2018-Jun-16 00:30N 34°37' E 135°14'5 9.9
2018-Jun-16 00:00N 34°38' E 135°20'5 9.2
2018-Jun-15 23:30N 34°39' E 135°25'2 4.2
2018-Jun-15 23:00N 34°40' E 135°27'0 0.1
2018-Jun-15 22:30N 34°40' E 135°27'0 0.0
2018-Jun-15 22:00N 34°40' E 135°27'0 0.0
2018-Jun-15 21:30N 34°40' E 135°27'0 0.0
2018-Jun-15 21:00N 34°40' E 135°27'0 0.0
2018-Jun-15 20:30N 34°40' E 135°27'0 0.0
2018-Jun-15 20:00N 34°40' E 135°27'3 7.1
2018-Jun-15 19:30N 34°38' E 135°24'510.1
2018-Jun-15 19:00N 34°36' E 135°18'510.3
2018-Jun-15 18:30N 34°35' E 135°12'611.6
2018-Jun-15 18:00N 34°35' E 135°05'712.4
2018-Jun-15 17:28N 34°36' E 134°57'511.0
2018-Jun-15 17:01N 34°34' E 134°52'5 9.6
2018-Jun-15 16:30N 34°32' E 134°46'5 9.2
2018-Jun-15 16:00N 34°30' E 134°41'5 9.5
2018-Jun-15 15:30N 34°29' E 134°36'5 9.3
2018-Jun-15 15:00N 34°27' E 134°31'5 9.5
2018-Jun-15 14:30N 34°25' E 134°25'4 0.1
2018-Jun-14 04:42N 34°26' E 134°21'3 8.9
2018-Jun-14 04:21N 34°26' E 134°24'3 9.4
2018-Jun-14 03:59N 34°27' E 134°28'5 9.5
2018-Jun-14 03:30N 34°29' E 134°33'5 9.5
2018-Jun-14 03:00N 34°31' E 134°39'510.0
2018-Jun-14 02:30N 34°33' E 134°44'510.1
2018-Jun-14 02:00N 34°34' E 134°50'610.1
2018-Jun-14 01:22N 34°37' E 134°57'4 9.6
2018-Jun-14 01:00N 34°37' E 135°02'5 9.6
2018-Jun-14 00:29N 34°37' E 135°08'510.3
2018-Jun-14 00:00N 34°37' E 135°14'510.1
2018-Jun-13 23:30N 34°38' E 135°20'5 9.9
2018-Jun-13 23:00N 34°39' E 135°26'2 3.5
2018-Jun-13 22:30N 34°40' E 135°27'0 0.0
2018-Jun-13 22:00N 34°40' E 135°27'0 0.1
2018-Jun-13 21:30N 34°40' E 135°27'0 0.0
2018-Jun-13 20:57N 34°40' E 135°27'0 0.0
2018-Jun-13 20:28N 34°40' E 135°27'0 0.0
2018-Jun-13 19:59N 34°40' E 135°27'0 0.0
2018-Jun-13 19:30N 34°40' E 135°27'0 0.0
2018-Jun-13 19:00N 34°40' E 135°27'0 0.0
2018-Jun-13 18:30N 34°40' E 135°27'0 0.0
2018-Jun-13 18:00N 34°40' E 135°27'2 3.7
2018-Jun-13 17:27N 34°39' E 135°25'510.7
2018-Jun-13 17:00N 34°36' E 135°20'510.4
2018-Jun-13 16:30N 34°35' E 135°14'510.8
2018-Jun-13 16:00N 34°35' E 135°08'611.9
2018-Jun-13 15:31N 34°37' E 135°01'711.4
2018-Jun-13 14:53N 34°35' E 134°53'410.1
2018-Jun-13 14:30N 34°33' E 134°48'5 9.6
2018-Jun-13 14:00N 34°31' E 134°43'5 9.6
2018-Jun-13 13:30N 34°29' E 134°38'5 9.7
2018-Jun-13 13:00N 34°28' E 134°32'5 9.8
2018-Jun-13 12:30N 34°26' E 134°27'5 9.6
2018-Jun-13 12:00N 34°24' E 134°21'8 8.8
2018-Jun-13 11:08N 34°24' E 134°12'10 0.3
2018-Jun-12 05:47N 34°26' E 134°24'3 9.4
2018-Jun-12 05:29N 34°27' E 134°27'4 9.3
2018-Jun-12 05:01N 34°29' E 134°32'5 9.3
2018-Jun-12 04:31N 34°30' E 134°38'5 9.3
2018-Jun-12 03:59N 34°32' E 134°43'4 8.8
2018-Jun-12 03:29N 34°34' E 134°48'4 7.7
2018-Jun-12 03:01N 34°35' E 134°52'3 6.8
2018-Jun-12 02:30N 34°37' E 134°56'5 7.0
2018-Jun-12 01:50N 34°37' E 135°02'2 6.9
2018-Jun-12 01:30N 34°36' E 135°04'5 9.3
2018-Jun-12 01:00N 34°36' E 135°10'5 9.7
2018-Jun-12 00:30N 34°36' E 135°15'5 9.8
2018-Jun-12 00:00N 34°37' E 135°21'5 9.8
2018-Jun-11 23:30N 34°40' E 135°26'1 1.6
2018-Jun-11 23:00N 34°40' E 135°27'0 0.0
2018-Jun-11 22:29N 34°40' E 135°27'0 0.0
2018-Jun-11 22:00N 34°40' E 135°27'0 0.0
2018-Jun-11 21:22N 34°40' E 135°27'0 0.0
2018-Jun-11 21:00N 34°40' E 135°27'0 0.0
2018-Jun-11 20:30N 34°40' E 135°27'0 0.0
2018-Jun-11 20:00N 34°40' E 135°27'2 4.4
2018-Jun-11 19:30N 34°39' E 135°25'510.8
2018-Jun-11 19:00N 34°36' E 135°19'610.9
2018-Jun-11 18:29N 34°35' E 135°13'611.7
2018-Jun-11 18:00N 34°34' E 135°06'612.5
2018-Jun-11 17:30N 34°37' E 134°59'713.0
2018-Jun-11 17:00N 34°34' E 134°52'611.7
2018-Jun-11 16:30N 34°32' E 134°45'611.3
2018-Jun-11 16:00N 34°30' E 134°39'611.2
2018-Jun-11 15:30N 34°28' E 134°33'510.9
2018-Jun-11 15:01N 34°26' E 134°27'1211.3
2018-Jun-11 13:55N 34°24' E 134°12'  

Dump ship's entire track history